My Meet Scores
Anna Perry, Flipstar Gymnastics Academy - MyMeetScores.com
Top100 | Top Teams | Upcoming Meets | Completed Meets | Latest | Add Scores | Help| Support | Bookmark and Share

Anna Perry, Flipstar Gymnastics Academy
Personal Bests
LevelVault BarsBeamFloorAA
9.2506.700 0.0000.00015.950
49.7509.425 9.3759.35037.100
59.5509.475 9.4509.32536.925
69.1508.775 9.0758.75035.650
Meet Scores
Date Meet Team Session Level Division Vault Bars Beam Floor AA
2012-03-16 2012 Illinois Level 6, 7 State Championships Flipstar Gymnastics Academy 4 6 Sr.C 9.100 4 8.775 7 9.025 4T 8.750 19T 35.650 5
2012-02-25 Midwest Open 2012 Flipstar Gymnastics Academy 5B 6 Lvl 6: 12 & up 9.000 7 8.650 10 8.650 11 7.900 23 34.200 12
2012-02-10 IGI Chicago Style Gymnastics Flipstar Gymnastics Academy 531 6 12 & Over 9.150 4T 8.000 27T 8.800 17 8.225 23 34.175 16
2012-01-28 2012 King Arthur Invitational Flipstar Gymnastics Academy 8 6 Sr.B 8.925 9 8.450 4 8.025 13 8.300 10 33.700 12
2012-01-06 Crossroads Classic Flipstar Gymnastics Academy All Sessions Combined 6 JR 9.150 2 8.000 8 9.075 4 8.600 10 34.825 6
2011-12-02 2011 Ultimate Wish Classic Flipstar Gymnastics Academy 8 6 Sr. 9.025 5 8.375 10 8.500 14 8.700 6 34.600 8
2011-11-11 2011 Illinois Judges Cup Flipstar Gymnastics Academy 7A 6 11-12 9.125 1 8.750 3 8.500 16 8.675 15 35.050 7
2011-04-01 2011 Illinois Level 5 State Meet Flipstar Gymnastics Academy 4 5 Sr.B 9.175 4 9.275 8 9.150 8 9.325 9 36.925 7
2011-03-04 Flip'r Meet Flipstar Gymnastics Academy 6 5 11+ 9.250 2 8.650 9 8.950 11 8.800 9 35.650 7
2011-02-26 Midwest Open Flipstar Gymnastics Academy 2A 5 11 9.000 3 9.475 2 9.200 5 8.650 5 36.325 3
2011-02-19 Big Dream Classic Flipstar Gymnastics Academy 4B 5 11yrs & up 9.075 7 9.225 10T 9.250 2 9.175 7 36.725 5
2011-02-11 IGI Chicago Style Gymnastics Meet Flipstar Gymnastics Academy 632 5 11 & Over 9.250 3 9.250 2T 9.450 4T 8.950 11T 36.900 1
2011-01-08 Crossroads Classic Flipstar Gymnastics Academy 2A 5 Sr B 9.125 1 8.850 7 9.300 1 8.700 4T 35.975 1
2010-12-03 Make a Wish Flipstar Gymnastics Academy 10 5 10-11 9.075 6T 9.100 3 9.350 4T 8.250 25T 35.775 6T
2010-04-23 2010 Illinois Level 5 State Championships Flipstar Gymnastics Academy 5 Jr.B 9.550 2 8.900 15 9.125 8 8.775 23 36.350 12
2010-02-27 Midwest Open Flipstar Gymnastics Academy 3A 5 10 9.125 7 9.100 10 9.050 4 8.250 20 35.525 10
2010-02-20 BIG Dream Classic 2010 Flipstar Gymnastics Academy 2A 5 10 9.225 1 7.800 24 9.075 13 8.475 25 34.575 20
2010-02-12 IGI Chicago Style Gymnastics Meet Flipstar Gymnastics Academy 621 5 10 Yr Olds 8.750 10 8.350 15 8.225 21T 8.050 18 33.375 16
2010-01-30 The King Arthur Invitational 2010 Flipstar Gymnastics Academy 5 SrA 8.950 2 8.550 8 8.825 9 8.300 17 34.625 8
2010-01-22 Bravo Classic 2010 Flipstar Gymnastics Academy 3B 5 10 9.000 1 8.550 5 7.900 10 8.700 6 34.150 5
2009-12-04 Ultimate Wish Classic Flipstar Gymnastics Academy 9 5 Ch9-11 9.050 4 8.800 12 7.650 46 8.050 39 33.550 28
2009-11-13 2009 North Judges Cup Flipstar Gymnastics Academy 6A 5 10 9.125 1 8.250 8 9.050 2 8.250 9 34.675 5
2009-03-13 2009 Illinois Level 4 State Championships Gym-KineticsSportsComplex 4 JrD 9.750 1 9.350 3 8.900 7 9.100 6 37.100 3
2009-02-13 For Love or Money Gym Kinetics Sports Complex LoveGym 4 9 9.575 2 8.800 51T 9.375 10T 9.350 20T 37.100 12
2009-01-17 St. Jude Benefit Meet Gym Kinetics Sports Complex 10 4 Lvl4:9-11 8.750 17 9.425 6 9.000 12 9.100 8 36.275 11
2008-12-13 St Nick Invite Gym Kinetics Sports Complex 5 4 All 9.500 1 8.900 19 8.650 42 8.525 55 35.575 21
2008-11-22 Thanksgiving Classic Gym Kinetics Sports Complex 6 4 Ch 9+ 8.950 6T 8.575 10T 8.250 15T 9.175 1 34.950 6
2008-11-15 Thanks To You Co~Ed Classic Gym Kinetics Sports Complex 2 4 9-11yrs. 9.550 1 8.775 8 8.950 3 8.750 5 36.025 1
2008-02-09 For Love or Money 2008 Gym Kinetics Sports Complex LoveGym 4 8 9.700 1T 7.450 103 7.450 105T 8.400 105T 33.000 100
2008-02-09 For Love or Money 2008 Gym Kinetics Sports Complex MoneyGym 4 8 0.000 1T 0.000 1T 0.000 1T 0.000 1T 0.000 1T

www.lazysuits.com